createdAt,value
2023-05-21T00:01:33.554Z,16.70
2023-05-21T00:04:01.371Z,17.09
2023-05-21T00:06:29.133Z,16.25
2023-05-21T00:08:56.880Z,16.32
2023-05-21T00:11:24.512Z,16.55
2023-05-21T00:13:52.161Z,15.75
2023-05-21T00:16:21.261Z,16.39
2023-05-21T00:18:49.731Z,15.57
2023-05-21T00:21:17.755Z,15.37
2023-05-21T00:23:48.116Z,15.12
2023-05-21T00:26:15.734Z,15.17
2023-05-21T00:28:43.488Z,15.76
2023-05-21T00:31:11.181Z,15.26
2023-05-21T00:33:40.197Z,15.57
2023-05-21T00:36:08.751Z,15.10
2023-05-21T00:38:38.035Z,15.35
2023-05-21T00:41:05.936Z,14.83
2023-05-21T00:43:33.806Z,15.10
2023-05-21T00:46:01.676Z,15.86
2023-05-21T00:48:29.448Z,14.92
2023-05-21T00:50:58.501Z,15.60
2023-05-21T00:53:27.543Z,15.66
2023-05-21T00:55:55.222Z,15.75
2023-05-21T00:58:22.916Z,15.87
2023-05-21T01:00:51.005Z,15.67
2023-05-21T01:03:19.189Z,15.18
2023-05-21T01:05:48.875Z,15.38
2023-05-21T01:08:18.103Z,16.07
2023-05-21T01:10:45.832Z,15.17
2023-05-21T01:13:14.945Z,14.71
2023-05-21T01:15:43.152Z,15.36
2023-05-21T01:18:11.003Z,14.68
2023-05-21T01:20:39.235Z,14.64
2023-05-21T01:23:08.221Z,14.30
2023-05-21T01:25:36.741Z,14.53
2023-05-21T01:28:04.714Z,14.63
2023-05-21T01:30:32.430Z,14.47
2023-05-21T01:33:04.844Z,15.23
2023-05-21T01:35:36.358Z,14.28
2023-05-21T01:38:15.199Z,14.51
2023-05-21T01:40:48.267Z,14.44
2023-05-21T01:43:16.488Z,14.82
2023-05-21T01:45:46.100Z,14.39
2023-05-21T01:48:14.750Z,14.56
2023-05-21T01:50:46.328Z,14.34
2023-05-21T01:53:17.268Z,14.04
2023-05-21T01:55:45.932Z,14.11
2023-05-21T01:58:15.710Z,14.41
2023-05-21T02:00:45.418Z,14.80
2023-05-21T02:03:14.695Z,15.07
2023-05-21T02:05:42.458Z,14.78
2023-05-21T02:08:11.202Z,15.29
2023-05-21T02:10:40.277Z,14.87
2023-05-21T02:13:08.075Z,15.03
2023-05-21T02:15:35.920Z,14.64
2023-05-21T02:18:04.339Z,14.51
2023-05-21T02:20:32.377Z,14.92
2023-05-21T02:23:00.113Z,15.44
2023-05-21T02:25:27.780Z,14.60
2023-05-21T02:27:56.902Z,14.91
2023-05-21T02:30:24.651Z,14.92
2023-05-21T02:32:52.371Z,14.94
2023-05-21T02:35:20.069Z,14.77
2023-05-21T02:37:47.784Z,14.39
2023-05-21T02:40:15.545Z,14.53
2023-05-21T02:42:43.270Z,14.39
2023-05-21T02:45:13.740Z,14.20
2023-05-21T02:47:41.717Z,13.88
2023-05-21T02:50:12.128Z,14.22
2023-05-21T02:52:39.800Z,14.30
2023-05-21T02:55:08.633Z,14.72
2023-05-21T02:57:36.320Z,15.34
2023-05-21T03:00:05.881Z,15.72
2023-05-21T03:02:35.070Z,15.87
2023-05-21T03:05:02.903Z,15.61
2023-05-21T03:07:30.681Z,14.71
2023-05-21T03:09:58.323Z,14.83
2023-05-21T03:12:26.348Z,15.64
2023-05-21T03:14:54.165Z,15.82
2023-05-21T03:17:22.270Z,15.77
2023-05-21T03:19:52.004Z,15.02
2023-05-21T03:22:20.244Z,15.35
2023-05-21T03:24:48.621Z,15.58
2023-05-21T03:27:16.795Z,15.66
2023-05-21T03:29:44.665Z,15.36
2023-05-21T03:32:12.539Z,14.98
2023-05-21T03:34:40.225Z,14.76
2023-05-21T03:37:09.323Z,14.33
2023-05-21T03:39:36.978Z,14.61
2023-05-21T03:42:04.941Z,15.56
2023-05-21T03:44:32.918Z,15.64
2023-05-21T03:47:00.749Z,16.29
2023-05-21T03:49:28.495Z,15.46
2023-05-21T03:51:56.338Z,14.98
2023-05-21T03:54:25.674Z,14.73
2023-05-21T03:56:53.409Z,16.00
2023-05-21T03:59:21.241Z,15.77
2023-05-21T04:01:48.930Z,14.89
2023-05-21T04:04:16.788Z,15.38
2023-05-21T04:06:44.549Z,15.40
2023-05-21T04:09:12.417Z,15.45
2023-05-21T04:11:41.429Z,15.12
2023-05-21T04:14:09.166Z,15.67
2023-05-21T04:16:38.627Z,15.10
2023-05-21T04:19:06.518Z,15.81
2023-05-21T04:21:34.369Z,15.72
2023-05-21T04:24:02.128Z,15.47
2023-05-21T04:26:33.766Z,15.73
2023-05-21T04:29:04.958Z,15.28
2023-05-21T04:31:33.169Z,14.88
2023-05-21T04:34:00.972Z,14.80
2023-05-21T04:36:30.157Z,14.66
2023-05-21T04:38:57.844Z,15.57
2023-05-21T04:41:25.534Z,15.36
2023-05-21T04:43:55.346Z,16.21
2023-05-21T04:46:25.676Z,16.30
2023-05-21T04:48:55.026Z,15.64
2023-05-21T04:51:24.639Z,16.07
2023-05-21T04:53:53.868Z,15.87
2023-05-21T04:56:22.810Z,15.42
2023-05-21T04:58:50.820Z,15.90
2023-05-21T05:01:18.963Z,15.98
2023-05-21T05:03:48.185Z,15.98
2023-05-21T05:06:15.908Z,16.83
2023-05-21T05:08:43.629Z,17.15
2023-05-21T05:11:11.332Z,17.87
2023-05-21T05:13:40.205Z,17.16
2023-05-21T05:16:09.060Z,16.11
2023-05-21T05:18:36.989Z,17.17
2023-05-21T05:21:06.149Z,16.71
2023-05-21T05:23:33.826Z,18.40
2023-05-21T05:26:01.588Z,18.87
2023-05-21T05:28:29.280Z,18.33
2023-05-21T05:30:57.048Z,19.59
2023-05-21T05:33:24.771Z,19.24
2023-05-21T05:35:52.597Z,21.01
2023-05-21T05:38:21.694Z,19.79
2023-05-21T05:40:49.384Z,21.99
2023-05-21T05:43:17.046Z,22.40
2023-05-21T05:45:44.720Z,24.23
2023-05-21T05:48:12.961Z,23.41
2023-05-21T05:50:41.023Z,20.32
2023-05-21T05:53:08.719Z,22.68
2023-05-21T05:55:38.282Z,20.55
2023-05-21T05:58:06.504Z,19.64
2023-05-21T06:00:34.197Z,21.19
2023-05-21T06:03:01.991Z,20.89
2023-05-21T06:05:29.765Z,17.65
2023-05-21T06:07:57.562Z,17.59
2023-05-21T06:10:25.297Z,20.27
2023-05-21T06:12:54.361Z,20.76
2023-05-21T06:15:22.233Z,19.98
2023-05-21T06:17:49.928Z,19.41
2023-05-21T06:20:17.873Z,20.59
2023-05-21T06:22:45.571Z,19.42
2023-05-21T06:25:13.254Z,19.44
2023-05-21T06:27:40.953Z,18.65
2023-05-21T06:30:10.757Z,19.18
2023-05-21T06:32:38.541Z,18.75
2023-05-21T06:35:07.341Z,19.28
2023-05-21T06:37:35.073Z,19.49
2023-05-21T06:40:03.238Z,20.23
2023-05-21T06:42:30.983Z,18.97
2023-05-21T06:44:58.643Z,20.04
2023-05-21T06:47:27.637Z,19.01
2023-05-21T06:49:55.398Z,18.57
2023-05-21T06:52:23.188Z,18.22
2023-05-21T06:54:50.992Z,20.00
2023-05-21T06:57:18.653Z,20.28
2023-05-21T06:59:46.353Z,18.86
2023-05-21T07:02:14.107Z,18.03
2023-05-21T07:04:43.142Z,19.41
2023-05-21T07:07:10.881Z,19.48
2023-05-21T07:09:38.558Z,20.52
2023-05-21T07:12:06.745Z,20.88
2023-05-21T07:14:34.427Z,21.35
2023-05-21T07:17:02.157Z,22.00
2023-05-21T07:19:30.063Z,20.15
2023-05-21T07:21:59.229Z,20.59
2023-05-21T07:24:27.617Z,21.48
2023-05-21T07:26:55.336Z,21.70
2023-05-21T07:29:23.025Z,22.34
2023-05-21T07:31:50.745Z,25.08
2023-05-21T07:34:18.567Z,24.57
2023-05-21T07:36:46.246Z,25.02
2023-05-21T07:39:15.318Z,23.94
2023-05-21T07:41:42.957Z,23.56
2023-05-21T07:44:10.641Z,24.18
2023-05-21T07:46:38.418Z,22.90
2023-05-21T07:49:06.118Z,22.03
2023-05-21T07:51:34.131Z,21.40
2023-05-21T07:54:01.828Z,21.47
2023-05-21T07:56:32.361Z,22.11
2023-05-21T07:59:00.034Z,23.15
2023-05-21T08:01:29.596Z,21.85
2023-05-21T08:04:00.679Z,22.06
2023-05-21T08:06:28.508Z,23.81
2023-05-21T08:08:56.189Z,24.24
2023-05-21T08:11:23.926Z,23.35
2023-05-21T08:13:52.994Z,21.28
2023-05-21T08:16:21.204Z,22.48
2023-05-21T08:18:48.888Z,22.93
2023-05-21T08:21:17.009Z,22.63
2023-05-21T08:23:44.802Z,22.80
2023-05-21T08:26:12.905Z,22.58
2023-05-21T08:28:40.592Z,23.09
2023-05-21T08:31:09.653Z,23.40
2023-05-21T08:33:38.226Z,22.43
2023-05-21T08:36:07.026Z,22.34
2023-05-21T08:38:36.433Z,21.55
2023-05-21T08:41:07.848Z,21.54
2023-05-21T08:43:38.029Z,22.21
2023-05-21T08:46:06.419Z,21.52
2023-05-21T08:48:37.656Z,21.97
2023-05-21T08:51:06.383Z,23.66
2023-05-21T08:53:34.318Z,23.53
2023-05-21T08:56:02.695Z,23.67
2023-05-21T08:58:33.569Z,22.12
2023-05-21T09:01:01.508Z,22.44
2023-05-21T09:03:31.666Z,23.56
2023-05-21T09:06:01.751Z,23.86
2023-05-21T09:08:32.869Z,24.16
2023-05-21T09:11:02.608Z,21.73
2023-05-21T09:13:32.628Z,22.31
2023-05-21T09:16:01.034Z,22.87
2023-05-21T09:18:28.717Z,23.81
2023-05-21T09:20:57.224Z,22.80
2023-05-21T09:23:29.739Z,23.52
2023-05-21T09:25:57.488Z,23.47
2023-05-21T09:28:26.380Z,22.45
2023-05-21T09:30:54.598Z,22.36
2023-05-21T09:33:26.824Z,22.67
2023-05-21T09:35:54.692Z,22.30
2023-05-21T09:38:23.933Z,22.84
2023-05-21T09:40:56.176Z,23.13
2023-05-21T09:43:23.919Z,22.48
2023-05-21T09:45:53.298Z,22.11
2023-05-21T09:48:34.525Z,23.09
2023-05-21T09:51:12.891Z,23.54
2023-05-21T09:53:54.483Z,23.77
2023-05-21T09:56:25.369Z,23.39
2023-05-21T09:58:54.728Z,24.34
2023-05-21T10:01:22.915Z,25.17
2023-05-21T10:03:56.265Z,24.96
2023-05-21T10:06:26.106Z,24.63
2023-05-21T10:08:55.902Z,24.59
2023-05-21T10:11:27.090Z,24.26
2023-05-21T10:13:59.107Z,24.11
2023-05-21T10:16:26.901Z,24.30
2023-05-21T10:18:57.578Z,24.11
2023-05-21T10:21:26.138Z,23.84
2023-05-21T10:23:56.443Z,24.64
2023-05-21T10:26:26.893Z,25.57
2023-05-21T10:28:57.232Z,24.93
2023-05-21T10:31:26.609Z,24.15
2023-05-21T10:33:55.080Z,24.31
2023-05-21T10:36:23.097Z,24.23
2023-05-21T10:38:50.777Z,26.18
2023-05-21T10:41:21.902Z,25.09
2023-05-21T10:44:03.747Z,25.42
2023-05-21T10:47:05.869Z,25.99
2023-05-21T10:49:51.582Z,26.11
2023-05-21T10:52:33.763Z,26.43
2023-05-21T10:55:13.858Z,25.84
2023-05-21T10:58:09.880Z,25.26
2023-05-21T11:00:39.806Z,26.00
2023-05-21T11:03:09.245Z,25.90
2023-05-21T11:05:42.132Z,25.94
2023-05-21T11:08:23.202Z,25.43
2023-05-21T11:10:54.915Z,26.03
2023-05-21T11:13:23.558Z,25.41
2023-05-21T11:16:08.967Z,25.74
2023-05-21T11:18:58.910Z,25.92
2023-05-21T11:21:31.164Z,26.93
2023-05-21T11:24:08.409Z,26.46
2023-05-21T11:27:02.230Z,26.08
2023-05-21T11:29:41.486Z,26.64
2023-05-21T11:32:11.440Z,26.28
2023-05-21T11:34:45.810Z,26.53
2023-05-21T11:37:41.723Z,27.65
2023-05-21T11:40:25.786Z,26.48
2023-05-21T11:42:54.859Z,25.90
2023-05-21T11:45:23.692Z,26.37
2023-05-21T11:47:53.536Z,26.35
2023-05-21T11:50:21.467Z,26.44
2023-05-21T11:52:50.243Z,26.85
2023-05-21T11:55:23.008Z,26.03
2023-05-21T11:57:55.048Z,26.27
2023-05-21T12:00:23.138Z,27.08
2023-05-21T12:02:55.509Z,26.39
2023-05-21T12:05:23.675Z,26.79
2023-05-21T12:07:51.444Z,26.96
2023-05-21T12:10:22.253Z,26.45
2023-05-21T12:12:55.645Z,27.79
2023-05-21T12:15:25.014Z,26.83
2023-05-21T12:17:54.386Z,26.21
2023-05-21T12:20:23.286Z,26.60
2023-05-21T12:22:51.084Z,27.36
2023-05-21T12:25:20.518Z,26.77
2023-05-21T12:27:50.456Z,27.31
2023-05-21T12:30:18.265Z,27.69
2023-05-21T12:32:46.004Z,26.71
2023-05-21T12:35:24.048Z,26.33
2023-05-21T12:37:52.582Z,26.78
2023-05-21T12:40:22.115Z,26.81
2023-05-21T12:42:50.955Z,27.28
2023-05-21T12:45:21.071Z,28.14
2023-05-21T12:47:50.544Z,28.18
2023-05-21T12:50:23.006Z,27.56
2023-05-21T12:52:50.707Z,27.60
2023-05-21T12:55:18.416Z,27.26
2023-05-21T12:57:47.587Z,26.92
2023-05-21T13:00:15.431Z,27.96
2023-05-21T13:02:45.771Z,26.58
2023-05-21T13:05:18.205Z,28.08
2023-05-21T13:07:47.889Z,28.57
2023-05-21T13:10:17.077Z,27.80
2023-05-21T13:12:45.219Z,28.24
2023-05-21T13:15:13.310Z,27.00
2023-05-21T13:17:41.052Z,27.34
2023-05-21T13:20:12.057Z,27.54
2023-05-21T13:22:43.784Z,26.58
2023-05-21T13:25:15.687Z,27.41
2023-05-21T13:27:44.525Z,26.74
2023-05-21T13:30:12.666Z,28.00
2023-05-21T13:32:41.418Z,27.65
2023-05-21T13:35:10.292Z,27.90
2023-05-21T13:37:38.133Z,27.85
2023-05-21T13:40:07.110Z,27.66
2023-05-21T13:42:38.324Z,28.16
2023-05-21T13:45:06.763Z,29.27
2023-05-21T13:47:36.841Z,29.18
2023-05-21T13:50:08.271Z,28.02
2023-05-21T13:52:36.347Z,28.59
2023-05-21T13:55:04.221Z,28.12
2023-05-21T13:57:32.121Z,28.22
2023-05-21T14:00:02.073Z,28.06
2023-05-21T14:02:30.136Z,28.42
2023-05-21T14:04:57.994Z,27.96
2023-05-21T14:07:25.717Z,28.19
2023-05-21T14:09:53.445Z,28.09
2023-05-21T14:12:21.729Z,28.96
2023-05-21T14:14:49.702Z,27.68
2023-05-21T14:17:18.943Z,28.71
2023-05-21T14:19:48.000Z,29.02
2023-05-21T14:22:15.782Z,28.80
2023-05-21T14:24:43.522Z,28.33
2023-05-21T14:27:13.150Z,28.07
2023-05-21T14:29:42.308Z,28.13
2023-05-21T14:32:10.084Z,27.66
2023-05-21T14:34:40.337Z,27.96
2023-05-21T14:37:08.125Z,27.66
2023-05-21T14:39:35.881Z,27.51
2023-05-21T14:42:04.561Z,26.81
2023-05-21T14:44:32.708Z,27.77
2023-05-21T14:47:00.502Z,27.68
2023-05-21T14:49:28.274Z,27.80
2023-05-21T14:51:57.310Z,28.96
2023-05-21T14:54:25.015Z,27.83
2023-05-21T14:56:52.760Z,28.50
2023-05-21T14:59:20.421Z,27.82
2023-05-21T15:01:48.222Z,27.56
2023-05-21T15:04:16.029Z,28.32
2023-05-21T15:06:43.813Z,28.04
2023-05-21T15:09:13.029Z,28.44
2023-05-21T15:11:40.795Z,28.23
2023-05-21T15:14:08.465Z,28.99
2023-05-21T15:16:36.203Z,28.99
2023-05-21T15:19:04.229Z,28.53
2023-05-21T15:21:32.084Z,27.79
2023-05-21T15:23:59.906Z,28.04
2023-05-21T15:26:28.945Z,28.98
2023-05-21T15:28:56.732Z,28.30
2023-05-21T15:31:24.410Z,27.98
2023-05-21T15:33:52.116Z,28.20
2023-05-21T15:36:19.940Z,27.95
2023-05-21T15:38:47.707Z,28.65
2023-05-21T15:41:15.410Z,27.85
2023-05-21T15:43:44.397Z,27.94
2023-05-21T15:46:12.729Z,28.34
2023-05-21T15:48:40.486Z,27.82
2023-05-21T15:51:08.242Z,27.04
2023-05-21T15:53:35.920Z,27.06
2023-05-21T15:56:04.185Z,27.36
2023-05-21T15:58:32.340Z,27.23
2023-05-21T16:01:01.485Z,28.17
2023-05-21T16:03:29.197Z,27.88
2023-05-21T16:05:56.877Z,27.63
2023-05-21T16:08:24.716Z,27.57
2023-05-21T16:10:52.374Z,26.98
2023-05-21T16:13:20.283Z,26.85
2023-05-21T16:15:47.927Z,27.18
2023-05-21T16:18:17.006Z,27.65
2023-05-21T16:20:44.919Z,27.77
2023-05-21T16:23:12.864Z,28.21
2023-05-21T16:25:40.589Z,28.37
2023-05-21T16:28:08.252Z,28.01
2023-05-21T16:30:35.900Z,27.42
2023-05-21T16:33:03.936Z,27.30
2023-05-21T16:35:33.006Z,26.75
2023-05-21T16:38:01.048Z,27.76
2023-05-21T16:40:28.715Z,27.10
2023-05-21T16:42:56.378Z,28.37
2023-05-21T16:45:24.088Z,27.51
2023-05-21T16:47:52.436Z,26.58
2023-05-21T16:50:20.735Z,27.17
2023-05-21T16:52:49.760Z,27.48
2023-05-21T16:55:17.477Z,27.22
2023-05-21T16:57:45.160Z,26.58
2023-05-21T17:00:13.759Z,26.10
2023-05-21T17:02:41.494Z,26.73
2023-05-21T17:05:09.526Z,27.15
2023-05-21T17:07:37.254Z,26.51
2023-05-21T17:10:07.679Z,26.99
2023-05-21T17:12:35.316Z,27.31
2023-05-21T17:15:04.020Z,27.10
2023-05-21T17:17:31.748Z,28.20
2023-05-21T17:19:59.668Z,28.52
2023-05-21T17:22:27.344Z,28.10
2023-05-21T17:24:55.125Z,28.26
2023-05-21T17:27:24.109Z,27.06
2023-05-21T17:29:51.792Z,27.85
2023-05-21T17:32:20.821Z,27.58
2023-05-21T17:34:48.513Z,27.18
2023-05-21T17:37:16.283Z,26.73
2023-05-21T17:39:43.994Z,27.28
2023-05-21T17:42:11.871Z,26.87
2023-05-21T17:44:40.881Z,26.51
2023-05-21T17:47:08.996Z,26.71
2023-05-21T17:49:36.758Z,27.26
2023-05-21T17:52:04.752Z,27.04
2023-05-21T17:54:32.571Z,27.07
2023-05-21T17:57:00.277Z,26.64
2023-05-21T17:59:27.998Z,26.13
2023-05-21T18:01:57.752Z,26.91
2023-05-21T18:04:25.470Z,25.80
2023-05-21T18:06:53.171Z,26.56
2023-05-21T18:09:20.833Z,26.73
2023-05-21T18:11:48.503Z,26.76
2023-05-21T18:14:16.285Z,27.44
2023-05-21T18:16:43.998Z,26.81
2023-05-21T18:19:13.377Z,26.15
2023-05-21T18:21:41.139Z,26.10
2023-05-21T18:24:09.275Z,27.08
2023-05-21T18:26:37.011Z,26.65
2023-05-21T18:29:04.716Z,27.07
2023-05-21T18:31:32.536Z,25.37
2023-05-21T18:34:00.224Z,26.03
2023-05-21T18:36:29.534Z,26.79
2023-05-21T18:38:57.573Z,26.87
2023-05-21T18:41:26.395Z,26.43
2023-05-21T18:43:54.071Z,25.45
2023-05-21T18:46:21.817Z,26.46
2023-05-21T18:48:49.796Z,25.90
2023-05-21T18:51:17.570Z,25.85
2023-05-21T18:53:46.566Z,25.21
2023-05-21T18:56:14.558Z,26.04
2023-05-21T18:58:42.241Z,25.76
2023-05-21T19:01:09.988Z,25.95
2023-05-21T19:03:39.071Z,25.61
2023-05-21T19:06:06.857Z,25.94
2023-05-21T19:08:34.771Z,24.40
2023-05-21T19:11:04.366Z,24.74
2023-05-21T19:13:32.046Z,24.82
2023-05-21T19:15:59.783Z,24.87
2023-05-21T19:18:30.368Z,24.74
2023-05-21T19:21:00.134Z,24.81
2023-05-21T19:23:28.545Z,24.22
2023-05-21T19:25:57.167Z,24.86
2023-05-21T19:28:26.189Z,25.18
2023-05-21T19:30:53.874Z,24.92
2023-05-21T19:33:21.723Z,25.45
2023-05-21T19:35:50.997Z,26.18
2023-05-21T19:38:18.673Z,25.48
2023-05-21T19:40:46.340Z,25.58
2023-05-21T19:43:14.012Z,25.74
2023-05-21T19:45:43.068Z,25.12
2023-05-21T19:48:11.089Z,25.55
2023-05-21T19:50:39.041Z,25.62
2023-05-21T19:53:07.339Z,25.62
2023-05-21T19:55:37.381Z,24.86
2023-05-21T19:58:05.127Z,25.02
2023-05-21T20:00:33.213Z,24.80
2023-05-21T20:03:02.341Z,24.95
2023-05-21T20:05:30.066Z,25.67
2023-05-21T20:07:58.398Z,26.04
2023-05-21T20:10:28.054Z,25.70
2023-05-21T20:12:55.837Z,25.78
2023-05-21T20:15:23.590Z,25.20
2023-05-21T20:17:51.382Z,25.17
2023-05-21T20:20:22.923Z,25.87
2023-05-21T20:22:50.654Z,25.12
2023-05-21T20:25:18.347Z,25.01
2023-05-21T20:27:46.414Z,24.81
2023-05-21T20:30:14.468Z,24.62
2023-05-21T20:32:42.180Z,24.40
2023-05-21T20:35:10.476Z,24.43
2023-05-21T20:37:39.653Z,24.42
2023-05-21T20:40:09.116Z,25.09
2023-05-21T20:42:37.161Z,25.58
2023-05-21T20:45:05.255Z,24.62
2023-05-21T20:47:33.714Z,24.63
2023-05-21T20:50:02.778Z,25.58
2023-05-21T20:52:30.472Z,25.82
2023-05-21T20:55:00.175Z,25.30
2023-05-21T20:57:29.764Z,25.48
2023-05-21T20:59:57.535Z,25.46
2023-05-21T21:02:25.440Z,25.20
2023-05-21T21:04:53.804Z,24.69
2023-05-21T21:07:21.884Z,24.69
2023-05-21T21:09:50.300Z,25.27
2023-05-21T21:12:25.314Z,24.86
2023-05-21T21:14:54.464Z,24.79
2023-05-21T21:17:22.174Z,25.24
2023-05-21T21:19:49.913Z,25.04
2023-05-21T21:22:18.300Z,25.14
2023-05-21T21:24:46.377Z,24.65
2023-05-21T21:27:14.283Z,24.54
2023-05-21T21:29:43.291Z,24.94
2023-05-21T21:32:10.965Z,24.22
2023-05-21T21:34:38.640Z,24.17
2023-05-21T21:37:06.537Z,23.86
2023-05-21T21:39:34.258Z,24.09
2023-05-21T21:42:02.025Z,23.80
2023-05-21T21:44:29.709Z,24.20
2023-05-21T21:46:58.700Z,23.90
2023-05-21T21:49:26.401Z,23.84
2023-05-21T21:51:57.631Z,24.26
2023-05-21T21:54:25.525Z,24.96
2023-05-21T21:56:53.203Z,24.15
2023-05-21T21:59:22.389Z,24.09
2023-05-21T22:01:50.229Z,24.08
2023-05-21T22:04:19.371Z,23.63
2023-05-21T22:06:48.226Z,24.07
2023-05-21T22:09:16.928Z,24.29
2023-05-21T22:11:44.672Z,24.72
2023-05-21T22:14:12.429Z,24.40
2023-05-21T22:16:41.474Z,23.92
2023-05-21T22:19:10.078Z,23.53
2023-05-21T22:21:39.670Z,23.23
2023-05-21T22:24:12.713Z,23.46
2023-05-21T22:26:45.468Z,24.05
2023-05-21T22:29:13.151Z,24.08
2023-05-21T22:31:40.820Z,24.12
2023-05-21T22:34:08.535Z,24.50
2023-05-21T22:36:38.756Z,24.24
2023-05-21T22:39:08.053Z,23.61
2023-05-21T22:41:35.769Z,23.40
2023-05-21T22:44:03.436Z,22.86
2023-05-21T22:46:31.981Z,23.24
2023-05-21T22:49:00.156Z,23.35
2023-05-21T22:51:28.799Z,23.91
2023-05-21T22:53:56.481Z,23.39
2023-05-21T22:56:26.316Z,23.78
2023-05-21T22:58:54.053Z,23.66
2023-05-21T23:01:21.796Z,23.81
2023-05-21T23:03:49.492Z,23.33
2023-05-21T23:06:17.224Z,24.15
2023-05-21T23:08:44.882Z,23.13
2023-05-21T23:11:12.621Z,23.42
2023-05-21T23:13:41.767Z,23.55
2023-05-21T23:16:09.546Z,23.11
2023-05-21T23:18:37.261Z,23.45
2023-05-21T23:21:05.148Z,24.00
2023-05-21T23:23:32.870Z,23.93
2023-05-21T23:26:00.585Z,23.19
2023-05-21T23:28:28.222Z,23.28
2023-05-21T23:30:57.284Z,22.79
2023-05-21T23:33:24.925Z,23.11
2023-05-21T23:35:52.586Z,23.12
2023-05-21T23:38:20.316Z,22.99
2023-05-21T23:40:48.008Z,22.91
2023-05-21T23:43:15.681Z,22.61
2023-05-21T23:45:43.436Z,22.72
2023-05-21T23:48:12.636Z,23.24
2023-05-21T23:50:40.417Z,22.52
2023-05-21T23:53:08.350Z,22.80
2023-05-21T23:55:36.446Z,22.61
2023-05-21T23:58:04.246Z,22.28
